Time;durP1;ratioP1;P1;durP2;ratioP2;P2;SDS_P1;SDS_P2;PMS_P1;PMS_P2;Temp;Humidity;BMP_temperature;BMP_pressure;BME280_temperature;BME280_humidity;BME280_pressure;Samples;Min_cycle;Max_cycle;Signal;HPM_P1;HPM_P2
2023/06/09 00:02:18;;;;;;;2.40;2.30;;;;;;;;;;4948604;28;20079;-76
2023/06/09 00:04:46;;;;;;;2.60;2.40;;;;;;;;;;4949684;28;20051;-75
2023/06/09 00:07:16;;;;;;;2.60;2.40;;;;;;;;;;4954327;28;20059;-78
2023/06/09 00:09:45;;;;;;;2.78;2.60;;;;;;;;;;4946669;28;20047;-77
2023/06/09 00:12:13;;;;;;;2.30;2.20;;;;;;;;;;4953674;28;20053;-75
2023/06/09 00:14:41;;;;;;;2.80;2.60;;;;;;;;;;4961294;28;20066;-76
2023/06/09 00:17:09;;;;;;;2.83;2.70;;;;;;;;;;4968011;28;20099;-76
2023/06/09 00:19:41;;;;;;;2.70;2.50;;;;;;;;;;4957835;28;20039;-77
2023/06/09 00:22:13;;;;;;;2.75;2.55;;;;;;;;;;4942462;28;20047;-76
2023/06/09 00:24:41;;;;;;;2.97;2.78;;;;;;;;;;4955439;28;20047;-77
2023/06/09 00:27:09;;;;;;;2.55;2.45;;;;;;;;;;4948994;28;20051;-76
2023/06/09 00:29:37;;;;;;;2.95;2.75;;;;;;;;;;4946022;28;20050;-77
2023/06/09 00:32:05;;;;;;;2.42;2.28;;;;;;;;;;4929209;28;20055;-76
2023/06/09 00:34:33;;;;;;;2.33;2.22;;;;;;;;;;4945763;28;20513;-76
2023/06/09 00:37:00;;;;;;;2.22;2.13;;;;;;;;;;4956462;28;20122;-77
2023/06/09 00:39:28;;;;;;;2.47;2.38;;;;;;;;;;4947248;28;20047;-77
2023/06/09 00:41:56;;;;;;;2.47;2.38;;;;;;;;;;4949623;28;20043;-76
2023/06/09 00:44:24;;;;;;;2.45;2.35;;;;;;;;;;4949807;28;20050;-76
2023/06/09 00:46:52;;;;;;;2.35;2.20;;;;;;;;;;4947614;28;20114;-78
2023/06/09 00:49:19;;;;;;;2.60;2.40;;;;;;;;;;4952223;28;20090;-77
2023/06/09 00:51:47;;;;;;;2.10;2.00;;;;;;;;;;4979765;28;20062;-77
2023/06/09 00:54:16;;;;;;;2.30;2.20;;;;;;;;;;4949908;28;20174;-76
2023/06/09 00:56:43;;;;;;;3.05;2.40;;;;;;;;;;4952978;28;20051;-76
2023/06/09 00:59:14;;;;;;;2.70;2.50;;;;;;;;;;4958636;28;20058;-76
2023/06/09 01:01:44;;;;;;;2.63;2.42;;;;;;;;;;4956794;28;20043;-78
2023/06/09 01:04:12;;;;;;;2.30;2.20;;;;;;;;;;4982677;28;20067;-76
2023/06/09 01:06:47;;;;;;;2.10;2.00;;;;;;;;;;4947830;28;20134;-76
2023/06/09 01:09:28;;;;;;;2.35;2.25;;;;;;;;;;4947438;28;20059;-75
2023/06/09 01:12:17;;;;;;;2.20;2.10;;;;;;;;;;4948204;28;20055;-76
2023/06/09 01:14:49;;;;;;;2.00;1.90;;;;;;;;;;4948768;28;20078;-76
2023/06/09 01:17:18;;;;;;;2.60;2.42;;;;;;;;;;4948568;28;20107;-77
2023/06/09 01:19:48;;;;;;;2.15;2.05;;;;;;;;;;4978847;28;20126;-77
2023/06/09 01:22:28;;;;;;;2.70;2.50;;;;;;;;;;4947951;28;20057;-77
2023/06/09 01:25:14;;;;;;;2.60;2.40;;;;;;;;;;4947244;28;20352;-76
2023/06/09 01:27:44;;;;;;;2.67;2.47;;;;;;;;;;4979222;28;20051;-76
2023/06/09 01:30:13;;;;;;;2.55;2.35;;;;;;;;;;4966741;28;20043;-74
2023/06/09 01:32:41;;;;;;;2.35;2.25;;;;;;;;;;4947647;28;20441;-76
2023/06/09 01:35:10;;;;;;;2.22;2.13;;;;;;;;;;4955194;28;20588;-76
2023/06/09 01:37:37;;;;;;;2.30;2.10;;;;;;;;;;4954648;28;20449;-77
2023/06/09 01:40:06;;;;;;;1.95;1.85;;;;;;;;;;4954088;28;20047;-76
2023/06/09 01:42:35;;;;;;;2.45;2.35;;;;;;;;;;4990271;28;20070;-76
2023/06/09 01:45:03;;;;;;;2.70;2.50;;;;;;;;;;4964893;28;20159;-76
2023/06/09 01:47:31;;;;;;;2.40;2.30;;;;;;;;;;4946974;28;20050;-77
2023/06/09 01:50:02;;;;;;;2.40;2.20;;;;;;;;;;4954806;28;20098;-77
2023/06/09 01:52:33;;;;;;;3.40;3.08;;;;;;;;;;4947602;28;20122;-75
2023/06/09 01:55:10;;;;;;;3.63;3.33;;;;;;;;;;4948956;28;20043;-76
2023/06/09 01:57:58;;;;;;;3.53;3.00;;;;;;;;;;4947823;28;20114;-78
2023/06/09 02:00:26;;;;;;;3.25;2.42;;;;;;;;;;4996858;28;20054;-76
2023/06/09 02:02:56;;;;;;;2.70;2.50;;;;;;;;;;4964353;28;20052;-76
2023/06/09 02:05:24;;;;;;;2.22;2.03;;;;;;;;;;4986296;28;20406;-76
2023/06/09 02:07:53;;;;;;;2.30;2.10;;;;;;;;;;4949794;28;20480;-77
2023/06/09 02:10:23;;;;;;;2.40;2.22;;;;;;;;;;4947224;28;20480;-77
2023/06/09 02:12:51;;;;;;;3.00;2.78;;;;;;;;;;4947303;28;20055;-77
2023/06/09 02:15:19;;;;;;;2.90;2.60;;;;;;;;;;4947804;28;20051;-76
2023/06/09 02:17:46;;;;;;;3.22;2.90;;;;;;;;;;4947698;28;20064;-77
2023/06/09 02:20:15;;;;;;;3.35;3.05;;;;;;;;;;4948035;28;20139;-77
2023/06/09 02:22:43;;;;;;;3.47;3.00;;;;;;;;;;4963664;28;20108;-75
2023/06/09 02:25:11;;;;;;;3.08;2.80;;;;;;;;;;4964544;28;20047;-76
2023/06/09 02:27:38;;;;;;;3.75;2.88;;;;;;;;;;5049743;23;20410;-75
2023/06/09 02:30:06;;;;;;;2.80;2.60;;;;;;;;;;4908071;29;20462;-75
2023/06/09 02:32:36;;;;;;;3.50;3.20;;;;;;;;;;4909532;29;20091;-75
2023/06/09 02:35:04;;;;;;;4.57;3.30;;;;;;;;;;4908431;29;20515;-75
2023/06/09 02:37:35;;;;;;;3.92;3.08;;;;;;;;;;4905086;29;20045;-75
2023/06/09 02:40:04;;;;;;;3.55;2.88;;;;;;;;;;4908914;28;20052;-75
2023/06/09 02:42:31;;;;;;;4.22;3.42;;;;;;;;;;4910002;29;20045;-75
2023/06/09 02:45:00;;;;;;;3.97;3.20;;;;;;;;;;4919905;29;21647;-75
2023/06/09 02:47:28;;;;;;;3.05;2.30;;;;;;;;;;4913405;29;20048;-75
2023/06/09 02:49:56;;;;;;;3.17;2.83;;;;;;;;;;4934306;28;20139;-75
2023/06/09 02:52:28;;;;;;;3.75;2.70;;;;;;;;;;4942425;28;20057;-75
2023/06/09 02:54:56;;;;;;;4.07;3.40;;;;;;;;;;4904561;29;20520;-75
2023/06/09 02:57:25;;;;;;;3.67;3.38;;;;;;;;;;4904941;29;20052;-75
2023/06/09 02:59:53;;;;;;;4.70;3.40;;;;;;;;;;4936043;28;20047;-75
2023/06/09 03:02:22;;;;;;;3.30;3.10;;;;;;;;;;4905360;29;20058;-75
2023/06/09 03:04:52;;;;;;;3.60;3.10;;;;;;;;;;4923179;29;20071;-75
2023/06/09 03:07:20;;;;;;;4.47;3.28;;;;;;;;;;4920899;29;20463;-75
2023/06/09 03:09:49;;;;;;;4.55;3.25;;;;;;;;;;4940173;28;20071;-75
2023/06/09 03:12:16;;;;;;;3.35;3.05;;;;;;;;;;4911154;29;20130;-75
2023/06/09 03:14:44;;;;;;;3.92;3.53;;;;;;;;;;4913637;29;20139;-75
2023/06/09 03:17:13;;;;;;;3.55;3.25;;;;;;;;;;4945565;28;20048;-75
2023/06/09 03:19:40;;;;;;;3.80;3.40;;;;;;;;;;4930192;28;20594;-75
2023/06/09 03:22:08;;;;;;;3.38;3.15;;;;;;;;;;4954826;28;20081;-75
2023/06/09 03:24:39;;;;;;;3.50;3.20;;;;;;;;;;4907696;29;20510;-75
2023/06/09 03:27:06;;;;;;;3.88;3.40;;;;;;;;;;4914322;29;20422;-75
2023/06/09 03:29:34;;;;;;;3.40;3.10;;;;;;;;;;4906072;29;20052;-75
2023/06/09 03:32:01;;;;;;;3.50;3.20;;;;;;;;;;4904938;29;20147;-75
2023/06/09 03:34:29;;;;;;;3.40;3.10;;;;;;;;;;4906581;29;20051;-75
2023/06/09 03:36:59;;;;;;;3.10;2.90;;;;;;;;;;4903369;29;20058;-75
2023/06/09 03:39:27;;;;;;;4.57;3.08;;;;;;;;;;4909083;29;20387;-75
2023/06/09 03:41:56;;;;;;;3.13;2.88;;;;;;;;;;4914921;29;20051;-75
2023/06/09 03:44:25;;;;;;;3.30;3.10;;;;;;;;;;4925430;29;20086;-75
2023/06/09 03:46:53;;;;;;;3.78;3.17;;;;;;;;;;4929019;29;20730;-75
2023/06/09 03:49:21;;;;;;;3.38;3.08;;;;;;;;;;4926420;28;20043;-75
2023/06/09 03:51:49;;;;;;;3.53;3.00;;;;;;;;;;4907884;29;20388;-75
2023/06/09 03:54:17;;;;;;;2.67;2.53;;;;;;;;;;4921120;29;20058;-75
2023/06/09 03:56:44;;;;;;;6.80;3.20;;;;;;;;;;4910480;29;20063;-75
2023/06/09 03:59:12;;;;;;;3.15;2.85;;;;;;;;;;4940414;28;20044;-75
2023/06/09 04:01:40;;;;;;;2.30;2.20;;;;;;;;;;4911021;29;20446;-75
2023/06/09 04:04:10;;;;;;;2.25;2.15;;;;;;;;;;4919429;29;20062;-75
2023/06/09 04:06:38;;;;;;;2.08;1.98;;;;;;;;;;4909099;29;20394;-76
2023/06/09 04:09:06;;;;;;;2.28;2.17;;;;;;;;;;4913386;29;20418;-75
2023/06/09 04:11:34;;;;;;;2.67;2.50;;;;;;;;;;4904753;29;20040;-75
2023/06/09 04:14:03;;;;;;;2.63;2.42;;;;;;;;;;4923847;29;20063;-75
2023/06/09 04:16:30;;;;;;;3.22;3.03;;;;;;;;;;4938492;28;20060;-75
2023/06/09 04:18:59;;;;;;;4.00;3.28;;;;;;;;;;4937148;28;20048;-75
2023/06/09 04:21:27;;;;;;;2.95;2.75;;;;;;;;;;4906918;29;20048;-75
2023/06/09 04:23:54;;;;;;;3.05;2.85;;;;;;;;;;4906104;28;20111;-75
2023/06/09 04:26:22;;;;;;;2.90;2.70;;;;;;;;;;4937247;28;20048;-76
2023/06/09 04:28:49;;;;;;;2.83;2.63;;;;;;;;;;4906990;29;21108;-75
2023/06/09 04:31:18;;;;;;;3.17;2.97;;;;;;;;;;4933624;28;20040;-75
2023/06/09 04:33:46;;;;;;;3.20;3.00;;;;;;;;;;4942382;28;20052;-75
2023/06/09 04:36:16;;;;;;;3.55;3.10;;;;;;;;;;4917966;29;20514;-75
2023/06/09 04:38:45;;;;;;;3.70;3.40;;;;;;;;;;4920111;29;20463;-75
2023/06/09 04:41:12;;;;;;;2.78;2.65;;;;;;;;;;4926212;28;20230;-75
2023/06/09 04:43:42;;;;;;;2.90;2.70;;;;;;;;;;4916613;29;20873;-75
2023/06/09 04:46:12;;;;;;;2.53;2.33;;;;;;;;;;4913584;29;20051;-75
2023/06/09 04:48:41;;;;;;;2.33;2.22;;;;;;;;;;4914794;29;20048;-75
2023/06/09 04:51:10;;;;;;;2.53;2.33;;;;;;;;;;4909217;29;20064;-75
2023/06/09 04:53:47;;;;;;;2.83;2.63;;;;;;;;;;4912565;29;20074;-75
2023/06/09 04:56:16;;;;;;;2.80;2.70;;;;;;;;;;4911871;29;20052;-75
2023/06/09 04:58:44;;;;;;;2.47;2.35;;;;;;;;;;4912986;29;20311;-75
2023/06/09 05:01:13;;;;;;;2.25;2.10;;;;;;;;;;4907161;29;20414;-75
2023/06/09 05:03:45;;;;;;;;;;;;;;;;;;4937092;29;20052;-75
2023/06/09 05:06:13;;;;;;;2.67;2.50;;;;;;;;;;4916791;29;20025;-75
2023/06/09 05:08:40;;;;;;;3.03;2.83;;;;;;;;;;4907956;29;20041;-75
2023/06/09 05:11:08;;;;;;;3.13;2.92;;;;;;;;;;4908893;29;20055;-76
2023/06/09 05:13:35;;;;;;;3.03;2.83;;;;;;;;;;4900329;29;20052;-76
2023/06/09 05:16:04;;;;;;;3.20;3.00;;;;;;;;;;4898054;29;20044;-75
2023/06/09 05:18:32;;;;;;;3.20;3.00;;;;;;;;;;4892348;29;20052;-75
2023/06/09 05:21:00;;;;;;;2.90;2.70;;;;;;;;;;4905538;28;20561;-76
2023/06/09 05:23:28;;;;;;;2.95;2.75;;;;;;;;;;4905225;29;20309;-75
2023/06/09 05:25:56;;;;;;;3.20;3.00;;;;;;;;;;4947740;28;20451;-76
2023/06/09 05:28:24;;;;;;;6.22;3.03;;;;;;;;;;4923785;29;20451;-75
2023/06/09 05:30:52;;;;;;;3.05;2.85;;;;;;;;;;4908776;29;20059;-76
2023/06/09 05:33:20;;;;;;;3.58;3.28;;;;;;;;;;4933564;28;20574;-75
2023/06/09 05:35:47;;;;;;;3.50;3.30;;;;;;;;;;4938038;28;20075;-75
2023/06/09 05:38:17;;;;;;;3.33;2.92;;;;;;;;;;4908088;29;20047;-75
2023/06/09 05:40:44;;;;;;;3.40;3.10;;;;;;;;;;4908358;29;20064;-75
2023/06/09 05:43:12;;;;;;;3.00;2.80;;;;;;;;;;4908531;28;20047;-75
2023/06/09 05:45:40;;;;;;;2.45;2.30;;;;;;;;;;4907428;29;20052;-75
2023/06/09 05:48:07;;;;;;;3.00;2.80;;;;;;;;;;4911527;29;20138;-75
2023/06/09 05:50:37;;;;;;;3.00;2.72;;;;;;;;;;4912974;29;20366;-75
2023/06/09 05:53:05;;;;;;;2.40;2.30;;;;;;;;;;4904542;29;20821;-75
2023/06/09 05:55:32;;;;;;;2.85;2.58;;;;;;;;;;4901061;29;20050;-76
2023/06/09 05:58:00;;;;;;;3.88;3.33;;;;;;;;;;4914786;28;20064;-75
2023/06/09 06:00:29;;;;;;;3.20;2.97;;;;;;;;;;4908443;29;20051;-75
2023/06/09 06:03:00;;;;;;;4.20;3.90;;;;;;;;;;4909351;29;20087;-75
2023/06/09 06:05:28;;;;;;;3.55;3.33;;;;;;;;;;4914555;29;20814;-75
2023/06/09 06:07:59;;;;;;;3.15;2.95;;;;;;;;;;4920922;28;20059;-76
2023/06/09 06:10:26;;;;;;;3.00;2.90;;;;;;;;;;4901153;29;20143;-76
2023/06/09 06:12:54;;;;;;;3.65;3.33;;;;;;;;;;4916396;29;20087;-75
2023/06/09 06:15:21;;;;;;;3.15;2.92;;;;;;;;;;4908709;29;20059;-75
2023/06/09 06:17:49;;;;;;;3.20;2.92;;;;;;;;;;4904619;29;20079;-74
2023/06/09 06:20:17;;;;;;;3.63;3.42;;;;;;;;;;4904541;29;20119;-76
2023/06/09 06:22:44;;;;;;;3.60;3.33;;;;;;;;;;4904775;29;20052;-75
2023/06/09 06:25:13;;;;;;;5.43;3.10;;;;;;;;;;4911250;29;20053;-75
2023/06/09 06:27:41;;;;;;;3.10;2.90;;;;;;;;;;4915399;29;20044;-75
2023/06/09 06:30:10;;;;;;;3.15;2.88;;;;;;;;;;4914279;29;20289;-75
2023/06/09 06:32:48;;;;;;;4.13;2.80;;;;;;;;;;4903155;29;20139;-75
2023/06/09 06:35:42;;;;;;;3.30;3.10;;;;;;;;;;4914071;29;20055;-75
2023/06/09 06:38:10;;;;;;;3.20;3.00;;;;;;;;;;4898092;28;20498;-75
2023/06/09 06:40:37;;;;;;;3.15;2.90;;;;;;;;;;4915103;28;20479;-75
2023/06/09 06:43:05;;;;;;;2.97;2.78;;;;;;;;;;4920989;29;20330;-75
2023/06/09 06:45:49;;;;;;;2.95;2.75;;;;;;;;;;4904920;29;20044;-75
2023/06/09 06:48:16;;;;;;;2.90;2.70;;;;;;;;;;4926810;29;20056;-75
2023/06/09 06:50:44;;;;;;;3.15;2.95;;;;;;;;;;4911658;29;20052;-75
2023/06/09 06:53:11;;;;;;;3.03;2.83;;;;;;;;;;4911375;29;20076;-75
2023/06/09 06:55:39;;;;;;;2.97;2.78;;;;;;;;;;4920554;29;20077;-75
2023/06/09 06:58:06;;;;;;;3.00;2.65;;;;;;;;;;4910601;29;20372;-75
2023/06/09 07:00:35;;;;;;;2.35;2.25;;;;;;;;;;4905440;29;20127;-75
2023/06/09 07:03:02;;;;;;;2.75;2.55;;;;;;;;;;4910282;29;20406;-75
2023/06/09 07:05:30;;;;;;;2.75;2.55;;;;;;;;;;4913299;28;20055;-75
2023/06/09 07:07:58;;;;;;;2.47;2.28;;;;;;;;;;4918881;29;20486;-75
2023/06/09 07:10:25;;;;;;;2.50;2.40;;;;;;;;;;4919520;29;20059;-75
2023/06/09 07:12:53;;;;;;;2.17;2.08;;;;;;;;;;4912449;29;20498;-75
2023/06/09 07:15:20;;;;;;;2.35;2.25;;;;;;;;;;4909512;28;20051;-75
2023/06/09 07:17:48;;;;;;;2.20;2.10;;;;;;;;;;4923522;29;20414;-75
2023/06/09 07:20:15;;;;;;;2.38;2.20;;;;;;;;;;4923898;29;20052;-75
2023/06/09 07:22:46;;;;;;;2.05;1.95;;;;;;;;;;4906636;29;20529;-75
2023/06/09 07:25:14;;;;;;;2.28;2.17;;;;;;;;;;4920012;29;20514;-75
2023/06/09 07:27:41;;;;;;;2.33;2.13;;;;;;;;;;4914927;29;20123;-75
2023/06/09 07:30:09;;;;;;;2.00;1.90;;;;;;;;;;4918673;29;20593;-75
2023/06/09 07:32:39;;;;;;;2.53;2.33;;;;;;;;;;4907760;29;20044;-75
2023/06/09 07:35:07;;;;;;;2.67;2.47;;;;;;;;;;4914180;29;20122;-75
2023/06/09 07:37:39;;;;;;;1.83;1.73;;;;;;;;;;4925157;29;20067;-75
2023/06/09 07:40:07;;;;;;;;;;;;;;;;;;4922425;29;20115;-75
2023/06/09 07:42:44;;;;;;;2.10;1.92;;;;;;;;;;4916970;29;19934;-75
2023/06/09 07:45:12;;;;;;;2.08;1.88;;;;;;;;;;4914362;28;20138;-75
2023/06/09 07:47:40;;;;;;;2.10;2.00;;;;;;;;;;4914290;29;20426;-75
2023/06/09 07:50:08;;;;;;;1.52;1.52;;;;;;;;;;4908994;29;20048;-75
2023/06/09 07:52:39;;;;;;;1.90;1.80;;;;;;;;;;4903967;29;20657;-74
2023/06/09 07:55:07;;;;;;;2.00;1.90;;;;;;;;;;4908370;28;20082;-75
2023/06/09 07:57:41;;;;;;;2.15;2.05;;;;;;;;;;4905975;29;20054;-75
2023/06/09 08:00:09;;;;;;;3.22;2.28;;;;;;;;;;4905008;29;20369;-75
2023/06/09 08:02:42;;;;;;;2.00;1.90;;;;;;;;;;4908062;28;20091;-75
2023/06/09 08:05:15;;;;;;;2.35;2.22;;;;;;;;;;4934970;28;20491;-75
2023/06/09 08:07:43;;;;;;;2.88;2.67;;;;;;;;;;4906962;29;20052;-75
2023/06/09 08:10:11;;;;;;;2.50;2.30;;;;;;;;;;4901844;29;20120;-75
2023/06/09 08:12:39;;;;;;;1.80;1.80;;;;;;;;;;4904336;28;20052;-75
2023/06/09 08:15:06;;;;;;;1.92;1.83;;;;;;;;;;4904087;29;20063;-75
2023/06/09 08:17:34;;;;;;;2.00;1.90;;;;;;;;;;4905821;29;20510;-75
2023/06/09 08:20:03;;;;;;;2.22;2.13;;;;;;;;;;4909934;29;20130;-76
2023/06/09 08:22:31;;;;;;;2.40;2.20;;;;;;;;;;4914862;29;20127;-75
2023/06/09 08:24:59;;;;;;;2.10;2.00;;;;;;;;;;4906239;29;20044;-75
2023/06/09 08:27:27;;;;;;;1.90;1.80;;;;;;;;;;4979324;23;20070;-78
2023/06/09 08:29:56;;;;;;;2.22;2.05;;;;;;;;;;4944282;28;20039;-77
2023/06/09 08:32:23;;;;;;;2.45;2.35;;;;;;;;;;4946481;28;20148;-79
2023/06/09 08:34:53;;;;;;;1.85;1.85;;;;;;;;;;4948571;28;20049;-78
2023/06/09 08:37:24;;;;;;;1.92;1.83;;;;;;;;;;4946173;28;20058;-77
2023/06/09 08:39:56;;;;;;;1.90;1.80;;;;;;;;;;4945195;28;20458;-78
2023/06/09 08:42:25;;;;;;;2.05;1.95;;;;;;;;;;4947525;28;20039;-78
2023/06/09 08:44:59;;;;;;;1.50;1.50;;;;;;;;;;4947378;28;20487;-77
2023/06/09 08:47:36;;;;;;;1.80;1.70;;;;;;;;;;4940219;28;20057;-77
2023/06/09 08:50:08;;;;;;;1.80;1.70;;;;;;;;;;4946341;28;20052;-77
2023/06/09 08:52:38;;;;;;;1.95;1.85;;;;;;;;;;4951629;28;20118;-77
2023/06/09 08:55:08;;;;;;;1.70;1.60;;;;;;;;;;4948399;28;20043;-77
2023/06/09 08:57:38;;;;;;;6.43;2.60;;;;;;;;;;4942723;28;20082;-76
2023/06/09 09:00:11;;;;;;;2.80;2.70;;;;;;;;;;4944559;28;20056;-76
2023/06/09 09:02:41;;;;;;;2.15;2.05;;;;;;;;;;4948478;28;20063;-77
2023/06/09 09:05:10;;;;;;;2.28;2.17;;;;;;;;;;4948205;28;20043;-78
2023/06/09 09:07:40;;;;;;;1.80;1.70;;;;;;;;;;4950329;28;20509;-77
2023/06/09 09:10:08;;;;;;;2.20;2.00;;;;;;;;;;4949780;28;20067;-77
2023/06/09 09:12:49;;;;;;;2.45;2.30;;;;;;;;;;4949323;28;20055;-77
2023/06/09 09:15:18;;;;;;;2.15;2.05;;;;;;;;;;4950165;28;20055;-78
2023/06/09 09:17:47;;;;;;;2.90;2.70;;;;;;;;;;4949071;28;20144;-77
2023/06/09 09:20:16;;;;;;;2.42;2.33;;;;;;;;;;4944866;28;20074;-77
2023/06/09 09:22:48;;;;;;;2.42;2.30;;;;;;;;;;4945789;28;20043;-77
2023/06/09 09:25:22;;;;;;;1.98;1.88;;;;;;;;;;4946307;28;20079;-77
2023/06/09 09:28:00;;;;;;;2.17;2.03;;;;;;;;;;4955713;28;20051;-76
2023/06/09 09:30:41;;;;;;;2.20;2.10;;;;;;;;;;4950504;28;20106;-78
2023/06/09 09:33:20;;;;;;;1.83;1.70;;;;;;;;;;4952218;28;20051;-77
2023/06/09 09:35:55;;;;;;;2.10;2.00;;;;;;;;;;4959531;28;20043;-76
2023/06/09 09:38:24;;;;;;;2.90;2.70;;;;;;;;;;4955608;28;20133;-79
2023/06/09 09:40:52;;;;;;;2.92;2.45;;;;;;;;;;4945715;28;20048;-76
2023/06/09 09:43:21;;;;;;;3.88;3.60;;;;;;;;;;4949732;28;20493;-76
2023/06/09 09:45:50;;;;;;;2.53;2.33;;;;;;;;;;4952364;28;20268;-76
2023/06/09 09:48:21;;;;;;;2.40;2.30;;;;;;;;;;4952346;28;20046;-77
2023/06/09 09:50:51;;;;;;;1.70;1.70;;;;;;;;;;4949220;28;20503;-77
2023/06/09 09:53:22;;;;;;;1.85;1.77;;;;;;;;;;4946850;28;20375;-78
2023/06/09 09:55:51;;;;;;;2.08;1.88;;;;;;;;;;4948730;28;20430;-78
2023/06/09 09:58:19;;;;;;;2.25;2.15;;;;;;;;;;4949055;28;20051;-78
2023/06/09 10:00:47;;;;;;;2.10;2.00;;;;;;;;;;4945001;28;20102;-78
2023/06/09 10:03:15;;;;;;;2.00;1.90;;;;;;;;;;4951402;28;20047;-76
2023/06/09 10:05:45;;;;;;;2.30;2.10;;;;;;;;;;4946026;28;20051;-78
2023/06/09 10:08:18;;;;;;;2.53;2.33;;;;;;;;;;4944808;28;20051;-76
2023/06/09 10:10:46;;;;;;;2.08;1.98;;;;;;;;;;4965004;28;20462;-78
2023/06/09 10:13:15;;;;;;;3.58;3.28;;;;;;;;;;4957491;28;20440;-77
2023/06/09 10:15:45;;;;;;;2.55;2.45;;;;;;;;;;4952142;28;20043;-78
2023/06/09 10:18:13;;;;;;;2.28;2.17;;;;;;;;;;4958424;28;20038;-77
2023/06/09 10:20:44;;;;;;;1.95;1.85;;;;;;;;;;4951641;28;20100;-78
2023/06/09 10:23:12;;;;;;;;;;;;;;;;;;4944693;28;20130;-77
2023/06/09 10:25:39;;;;;;;3.00;2.80;;;;;;;;;;4943626;28;20005;-77
2023/06/09 10:28:08;;;;;;;2.97;2.83;;;;;;;;;;4951763;28;20425;-79
2023/06/09 10:30:36;;;;;;;3.58;2.45;;;;;;;;;;4952068;28;20576;-76
2023/06/09 10:33:07;;;;;;;;;;;;;;;;;;4949059;28;20103;-76
2023/06/09 10:35:35;;;;;;;2.55;2.35;;;;;;;;;;4955251;28;19953;-78
2023/06/09 10:38:22;;;;;;;2.28;2.17;;;;;;;;;;4944785;28;20089;-77
2023/06/09 10:40:53;;;;;;;2.90;2.70;;;;;;;;;;4939092;28;20533;-78
2023/06/09 10:43:37;;;;;;;2.50;2.30;;;;;;;;;;4937882;28;20453;-78
2023/06/09 10:46:06;;;;;;;1.75;1.65;;;;;;;;;;4939062;28;20861;-77
2023/06/09 10:48:48;;;;;;;1.98;1.88;;;;;;;;;;4949011;28;20067;-77
2023/06/09 10:51:39;;;;;;;2.42;2.30;;;;;;;;;;4938964;28;20047;-78
2023/06/09 10:54:10;;;;;;;2.50;2.30;;;;;;;;;;4951935;28;20051;-78
2023/06/09 10:56:41;;;;;;;2.30;2.20;;;;;;;;;;4948360;28;20572;-78
2023/06/09 10:59:25;;;;;;;2.78;2.67;;;;;;;;;;4951036;28;20138;-78
2023/06/09 11:02:01;;;;;;;2.17;2.08;;;;;;;;;;4954381;28;20095;-78
2023/06/09 11:04:45;;;;;;;1.55;1.55;;;;;;;;;;4955512;28;20048;-78
2023/06/09 11:07:14;;;;;;;1.52;1.52;;;;;;;;;;4948740;28;20113;-78
2023/06/09 11:09:51;;;;;;;2.10;2.00;;;;;;;;;;4950154;28;20043;-80
2023/06/09 11:12:25;;;;;;;1.85;1.77;;;;;;;;;;4950964;28;20807;-78
2023/06/09 11:14:52;;;;;;;2.15;1.95;;;;;;;;;;4944287;28;20054;-79
2023/06/09 11:17:25;;;;;;;2.35;2.25;;;;;;;;;;4950984;28;20047;-78
2023/06/09 11:20:10;;;;;;;1.80;1.70;;;;;;;;;;4954771;28;20043;-79
2023/06/09 11:22:43;;;;;;;4.13;2.28;;;;;;;;;;4958026;28;20134;-80
2023/06/09 11:25:22;;;;;;;2.85;1.90;;;;;;;;;;4949881;28;20051;-80
2023/06/09 11:27:55;;;;;;;2.00;1.90;;;;;;;;;;4948434;28;20117;-81
2023/06/09 11:30:24;;;;;;;2.10;2.00;;;;;;;;;;4950410;28;20223;-78
2023/06/09 11:32:56;;;;;;;1.90;1.80;;;;;;;;;;4954960;28;20063;-79
2023/06/09 11:35:23;;;;;;;2.90;2.20;;;;;;;;;;4950714;28;20073;-79
2023/06/09 11:37:51;;;;;;;1.95;1.85;;;;;;;;;;4947039;28;20047;-79
2023/06/09 11:40:19;;;;;;;1.55;1.55;;;;;;;;;;4947627;28;20062;-80
2023/06/09 11:42:47;;;;;;;1.90;1.80;;;;;;;;;;4946029;28;20055;-78
2023/06/09 11:45:15;;;;;;;1.73;1.63;;;;;;;;;;4941876;28;20094;-79
2023/06/09 11:47:43;;;;;;;1.73;1.63;;;;;;;;;;4945257;28;20043;-79
2023/06/09 11:50:14;;;;;;;1.70;1.60;;;;;;;;;;4946359;28;20058;-80
2023/06/09 11:52:43;;;;;;;2.30;2.10;;;;;;;;;;4946436;28;20062;-79
2023/06/09 11:55:11;;;;;;;1.90;1.80;;;;;;;;;;4962453;28;20082;-79
2023/06/09 11:57:39;;;;;;;1.80;1.70;;;;;;;;;;4945527;28;20493;-78
2023/06/09 12:00:14;;;;;;;2.17;2.08;;;;;;;;;;4946222;28;20106;-80
2023/06/09 12:02:42;;;;;;;2.05;1.95;;;;;;;;;;4945488;28;20047;-78
2023/06/09 12:05:11;;;;;;;2.25;2.15;;;;;;;;;;4955097;28;20042;-78
2023/06/09 12:07:45;;;;;;;1.70;1.70;;;;;;;;;;4941141;28;20043;-79
2023/06/09 12:10:14;;;;;;;2.05;1.95;;;;;;;;;;4955577;28;20038;-78
2023/06/09 12:12:45;;;;;;;4.32;1.90;;;;;;;;;;4959071;28;20055;-78
2023/06/09 12:15:14;;;;;;;2.28;2.17;;;;;;;;;;4949519;28;20143;-79
2023/06/09 12:17:42;;;;;;;1.90;1.80;;;;;;;;;;4949487;28;20142;-79
2023/06/09 12:20:28;;;;;;;2.03;1.92;;;;;;;;;;4953568;28;20079;-78
2023/06/09 12:22:55;;;;;;;2.10;2.00;;;;;;;;;;4942617;28;20047;-80
2023/06/09 12:25:27;;;;;;;2.08;1.98;;;;;;;;;;4954167;28;20130;-80
2023/06/09 12:27:56;;;;;;;2.00;1.90;;;;;;;;;;4949807;28;20154;-78
2023/06/09 12:30:33;;;;;;;2.42;2.33;;;;;;;;;;4952050;28;20103;-78
2023/06/09 12:33:05;;;;;;;2.30;2.20;;;;;;;;;;4953871;28;20422;-78
2023/06/09 12:35:40;;;;;;;2.10;2.00;;;;;;;;;;4950699;28;21353;-80
2023/06/09 12:38:21;;;;;;;1.88;1.77;;;;;;;;;;4955063;28;20138;-79
2023/06/09 12:40:50;;;;;;;1.88;1.83;;;;;;;;;;4952673;28;20057;-79
2023/06/09 12:43:18;;;;;;;2.00;1.90;;;;;;;;;;4958104;28;20130;-79
2023/06/09 12:45:47;;;;;;;1.80;1.70;;;;;;;;;;4964447;28;20083;-79
2023/06/09 12:48:16;;;;;;;2.05;1.95;;;;;;;;;;4959302;28;20117;-79
2023/06/09 12:50:43;;;;;;;2.00;1.90;;;;;;;;;;4952839;28;20058;-78
2023/06/09 12:53:12;;;;;;;1.73;1.63;;;;;;;;;;4956579;28;20047;-78
2023/06/09 12:55:40;;;;;;;1.55;1.50;;;;;;;;;;4951532;28;20069;-79
2023/06/09 12:58:09;;;;;;;1.70;1.60;;;;;;;;;;4951431;28;20058;-79
2023/06/09 13:00:37;;;;;;;3.40;1.73;;;;;;;;;;4964519;28;20113;-80
2023/06/09 13:03:07;;;;;;;1.50;1.50;;;;;;;;;;4978002;28;20280;-78
2023/06/09 13:05:35;;;;;;;1.73;1.63;;;;;;;;;;4969075;28;20051;-79
2023/06/09 13:08:04;;;;;;;1.50;1.40;;;;;;;;;;4960782;28;20047;-79
2023/06/09 13:10:32;;;;;;;1.48;1.48;;;;;;;;;;4961140;28;20583;-80
2023/06/09 13:12:59;;;;;;;1.45;1.40;;;;;;;;;;4960277;28;20043;-80
2023/06/09 13:15:27;;;;;;;1.35;1.35;;;;;;;;;;4973221;28;20059;-79
2023/06/09 13:17:55;;;;;;;1.60;1.60;;;;;;;;;;4953605;28;20039;-79
2023/06/09 13:20:23;;;;;;;1.17;1.17;;;;;;;;;;4961175;28;20394;-78
2023/06/09 13:22:51;;;;;;;1.30;1.30;;;;;;;;;;4958306;28;20051;-80
2023/06/09 13:25:18;;;;;;;1.60;1.50;;;;;;;;;;4960461;28;20098;-79
2023/06/09 13:27:46;;;;;;;1.52;1.52;;;;;;;;;;4961155;28;20051;-79
2023/06/09 13:30:14;;;;;;;1.33;1.33;;;;;;;;;;4956978;28;20074;-78
2023/06/09 13:32:41;;;;;;;1.30;1.30;;;;;;;;;;4966529;28;20051;-78
2023/06/09 13:35:10;;;;;;;1.30;1.30;;;;;;;;;;4964041;28;20489;-79
2023/06/09 13:37:38;;;;;;;1.30;1.30;;;;;;;;;;4961287;28;20051;-79
2023/06/09 13:40:06;;;;;;;1.20;1.10;;;;;;;;;;4955374;28;20058;-79
2023/06/09 13:42:34;;;;;;;1.52;1.42;;;;;;;;;;4951338;28;20070;-79
2023/06/09 13:45:02;;;;;;;1.50;1.40;;;;;;;;;;4958379;28;20050;-78
2023/06/09 13:47:30;;;;;;;1.30;1.30;;;;;;;;;;4966661;28;20062;-79
2023/06/09 13:49:57;;;;;;;1.52;1.48;;;;;;;;;;4953734;28;20126;-79
2023/06/09 13:52:25;;;;;;;1.40;1.40;;;;;;;;;;4968858;28;20165;-79
2023/06/09 13:54:52;;;;;;;1.55;1.20;;;;;;;;;;4959255;28;20111;-79
2023/06/09 13:57:20;;;;;;;1.15;1.15;;;;;;;;;;4959992;28;20058;-79
2023/06/09 13:59:47;;;;;;;1.45;1.45;;;;;;;;;;4954222;28;20502;-79
2023/06/09 14:02:15;;;;;;;1.20;1.20;;;;;;;;;;4959092;28;20050;-79
2023/06/09 14:04:43;;;;;;;1.25;1.25;;;;;;;;;;4951248;28;20485;-79
2023/06/09 14:07:11;;;;;;;1.30;1.30;;;;;;;;;;4962043;28;20071;-81
2023/06/09 14:09:39;;;;;;;1.20;1.20;;;;;;;;;;4956834;28;20072;-78
2023/06/09 14:12:07;;;;;;;2.45;1.20;;;;;;;;;;4962715;28;20115;-78
2023/06/09 14:14:36;;;;;;;1.10;1.10;;;;;;;;;;4955235;28;20278;-79
2023/06/09 14:17:04;;;;;;;1.20;1.20;;;;;;;;;;4959622;28;20047;-81
2023/06/09 14:19:32;;;;;;;1.15;1.05;;;;;;;;;;4959526;28;20498;-79
2023/06/09 14:22:00;;;;;;;1.73;1.63;;;;;;;;;;4962602;28;20059;-79
2023/06/09 14:24:27;;;;;;;1.90;1.80;;;;;;;;;;4965884;28;20070;-78
2023/06/09 14:29:48;;;;;;;1.90;1.80;;;;;;;;;;4948412;28;20051;-78
2023/06/09 14:32:19;;;;;;;2.22;2.13;;;;;;;;;;4952177;28;20142;-79
2023/06/09 14:34:46;;;;;;;3.00;2.70;;;;;;;;;;4953172;28;20097;-77
2023/06/09 14:37:14;;;;;;;2.40;2.20;;;;;;;;;;4961753;28;20292;-77
2023/06/09 14:39:42;;;;;;;2.00;1.90;;;;;;;;;;4946295;28;20103;-77
2023/06/09 14:42:10;;;;;;;2.22;2.13;;;;;;;;;;4952222;28;20275;-76
2023/06/09 14:44:38;;;;;;;2.65;2.00;;;;;;;;;;4952986;28;20058;-76
2023/06/09 14:47:05;;;;;;;2.13;2.03;;;;;;;;;;4951481;28;20051;-78
2023/06/09 14:49:33;;;;;;;2.30;2.10;;;;;;;;;;4950469;28;20047;-77
2023/06/09 14:52:00;;;;;;;2.33;2.22;;;;;;;;;;4949955;28;20047;-79
2023/06/09 14:54:27;;;;;;;2.50;2.30;;;;;;;;;;4950853;28;20382;-76
2023/06/09 14:56:55;;;;;;;2.20;2.10;;;;;;;;;;4960895;28;20130;-76
2023/06/09 14:59:22;;;;;;;1.58;1.58;;;;;;;;;;4953376;28;20055;-76
2023/06/09 15:01:50;;;;;;;1.75;1.70;;;;;;;;;;4949062;28;20059;-76